Vici, Oklahoma
Current Conditions -  °F | °C
As of 10:55 PM on Saturday 22 Nov 2014 (Local Time) from KWWR Reporting Station
Overcast Overcast  
Wind Chill: 54°   Ceiling: 1100
Heat Index: 54°   Visibility: 10mi
Dew Point: 50°   Wind: 21mph
Humidity: 88%   Direction: 170°S
Pressure: 29.63"   Gusts: 33mph
Location:  36.15°N, 99.3°W
Report Text: KWWR 230455Z AUTO 17018G29KT 10SM OVC011 12/10 A2963 RMK AO2
Loading
Personal Weather Stations






























Interactive Weather Map New forecast layout! Learn more

10-Day Weather Forecast

Advertisements
Track Severe Weather on mobile